sensor_id;sensor_type;location;lat;lon;timestamp;pressure;altitude;pressure_sealevel;temperature;humidity
76124;BME280;65173;48.066;20.976;2023-02-01T00:00:48;100228.75;;;1.15;81.43
76124;BME280;65173;48.066;20.976;2023-02-01T00:03:51;100230.34;;;1.16;81.27
76124;BME280;65173;48.066;20.976;2023-02-01T00:06:53;100214.59;;;1.16;81.58
76124;BME280;65173;48.066;20.976;2023-02-01T00:09:57;100221.44;;;1.17;81.52
76124;BME280;65173;48.066;20.976;2023-02-01T00:12:59;100223.19;;;1.07;81.87
76124;BME280;65173;48.066;20.976;2023-02-01T00:16:06;100225.53;;;1.03;82.12
76124;BME280;65173;48.066;20.976;2023-02-01T00:19:14;100234.88;;;0.89;82.58
76124;BME280;65173;48.066;20.976;2023-02-01T00:22:17;100240.97;;;0.67;82.84
76124;BME280;65173;48.066;20.976;2023-02-01T00:25:20;100228.75;;;0.51;83.21
76124;BME280;65173;48.066;20.976;2023-02-01T00:28:23;100243.69;;;0.51;83.90
76124;BME280;65173;48.066;20.976;2023-02-01T00:31:25;100247.13;;;0.56;83.73
76124;BME280;65173;48.066;20.976;2023-02-01T00:34:30;100233.84;;;0.63;83.82
76124;BME280;65173;48.066;20.976;2023-02-01T00:37:33;100220.53;;;0.69;83.38
76124;BME280;65173;48.066;20.976;2023-02-01T00:40:36;100216.94;;;0.81;83.28
76124;BME280;65173;48.066;20.976;2023-02-01T00:43:39;100201.31;;;0.64;84.03
76124;BME280;65173;48.066;20.976;2023-02-01T00:46:42;100202.97;;;0.70;84.69
76124;BME280;65173;48.066;20.976;2023-02-01T00:49:45;100188.44;;;0.89;84.63
76124;BME280;65173;48.066;20.976;2023-02-01T00:52:47;100188.50;;;0.99;84.41
76124;BME280;65173;48.066;20.976;2023-02-01T00:55:52;100183.06;;;1.11;84.21
76124;BME280;65173;48.066;20.976;2023-02-01T00:58:55;100185.72;;;1.16;83.70
76124;BME280;65173;48.066;20.976;2023-02-01T01:01:58;100184.94;;;1.16;83.93
76124;BME280;65173;48.066;20.976;2023-02-01T01:05:01;100195.47;;;1.26;83.63
76124;BME280;65173;48.066;20.976;2023-02-01T01:08:03;100183.75;;;1.38;83.08
76124;BME280;65173;48.066;20.976;2023-02-01T01:11:14;100178.47;;;1.33;83.34
76124;BME280;65173;48.066;20.976;2023-02-01T01:14:18;100188.16;;;1.28;83.70
76124;BME280;65173;48.066;20.976;2023-02-01T01:17:21;100177.66;;;1.28;83.55
76124;BME280;65173;48.066;20.976;2023-02-01T01:20:24;100170.31;;;1.30;83.44
76124;BME280;65173;48.066;20.976;2023-02-01T01:23:27;100167.31;;;1.11;83.68
76124;BME280;65173;48.066;20.976;2023-02-01T01:26:30;100139.72;;;1.03;84.34
76124;BME280;65173;48.066;20.976;2023-02-01T01:29:33;100140.44;;;0.94;84.84
76124;BME280;65173;48.066;20.976;2023-02-01T01:32:36;100146.84;;;1.13;84.97
76124;BME280;65173;48.066;20.976;2023-02-01T01:35:40;100137.16;;;1.14;84.96
76124;BME280;65173;48.066;20.976;2023-02-01T01:38:43;100143.97;;;1.15;84.95
76124;BME280;65173;48.066;20.976;2023-02-01T01:41:46;100141.13;;;1.21;84.78
76124;BME280;65173;48.066;20.976;2023-02-01T01:45:03;100135.91;;;1.26;84.38
76124;BME280;65173;48.066;20.976;2023-02-01T01:48:26;100131.72;;;1.30;84.08
76124;BME280;65173;48.066;20.976;2023-02-01T01:51:31;100129.34;;;1.29;84.12
76124;BME280;65173;48.066;20.976;2023-02-01T01:54:38;100115.97;;;1.30;84.02
76124;BME280;65173;48.066;20.976;2023-02-01T01:57:46;100121.72;;;1.22;84.22
76124;BME280;65173;48.066;20.976;2023-02-01T02:00:53;100131.44;;;1.27;84.36
76124;BME280;65173;48.066;20.976;2023-02-01T02:03:57;100138.28;;;1.28;84.55
76124;BME280;65173;48.066;20.976;2023-02-01T02:07:05;100142.97;;;1.21;84.99
76124;BME280;65173;48.066;20.976;2023-02-01T02:10:11;100129.56;;;1.17;85.14
76124;BME280;65173;48.066;20.976;2023-02-01T02:13:15;100127.16;;;1.11;86.17
76124;BME280;65173;48.066;20.976;2023-02-01T02:27:09;100123.88;;;0.88;87.07
76124;BME280;65173;48.066;20.976;2023-02-01T02:37:45;100107.63;;;0.91;86.84
76124;BME280;65173;48.066;20.976;2023-02-01T02:41:00;100121.47;;;0.82;87.06
76124;BME280;65173;48.066;20.976;2023-02-01T02:44:12;100099.19;;;0.84;86.59
76124;BME280;65173;48.066;20.976;2023-02-01T02:54:29;100114.31;;;0.72;86.32
76124;BME280;65173;48.066;20.976;2023-02-01T02:57:50;100087.31;;;0.77;86.50
76124;BME280;65173;48.066;20.976;2023-02-01T03:01:11;100098.06;;;0.75;86.55
76124;BME280;65173;48.066;20.976;2023-02-01T03:04:33;100088.88;;;0.73;86.39
76124;BME280;65173;48.066;20.976;2023-02-01T03:11:14;100083.56;;;0.62;86.85
76124;BME280;65173;48.066;20.976;2023-02-01T03:14:19;100081.91;;;0.51;87.10
76124;BME280;65173;48.066;20.976;2023-02-01T03:17:29;100074.78;;;0.47;87.28
76124;BME280;65173;48.066;20.976;2023-02-01T03:20:37;100074.38;;;0.60;87.14
76124;BME280;65173;48.066;20.976;2023-02-01T03:23:42;100092.22;;;0.63;87.20
76124;BME280;65173;48.066;20.976;2023-02-01T03:26:55;100095.28;;;0.55;87.53
76124;BME280;65173;48.066;20.976;2023-02-01T03:30:21;100128.63;;;0.59;86.78
76124;BME280;65173;48.066;20.976;2023-02-01T03:33:26;100128.56;;;0.49;87.18
76124;BME280;65173;48.066;20.976;2023-02-01T03:39:48;100135.47;;;0.28;87.67
76124;BME280;65173;48.066;20.976;2023-02-01T03:42:55;100127.59;;;0.28;87.36
76124;BME280;65173;48.066;20.976;2023-02-01T03:46:04;100128.63;;;0.27;87.32
76124;BME280;65173;48.066;20.976;2023-02-01T03:49:12;100116.72;;;0.15;87.12
76124;BME280;65173;48.066;20.976;2023-02-01T03:55:40;100138.22;;;-0.10;88.13
76124;BME280;65173;48.066;20.976;2023-02-01T03:58:44;100129.50;;;-0.16;88.26
76124;BME280;65173;48.066;20.976;2023-02-01T04:02:03;100122.47;;;-0.37;88.92
76124;BME280;65173;48.066;20.976;2023-02-01T04:05:06;100117.66;;;-0.67;89.10
76124;BME280;65173;48.066;20.976;2023-02-01T04:08:09;100113.91;;;-0.54;89.28
76124;BME280;65173;48.066;20.976;2023-02-01T04:11:12;100109.50;;;-0.49;89.38
76124;BME280;65173;48.066;20.976;2023-02-01T04:14:14;100101.81;;;-0.33;88.41
76124;BME280;65173;48.066;20.976;2023-02-01T04:17:17;100115.84;;;-0.18;87.63
76124;BME280;65173;48.066;20.976;2023-02-01T04:20:20;100119.72;;;0.02;87.09
76124;BME280;65173;48.066;20.976;2023-02-01T04:23:24;100124.91;;;0.23;86.43
76124;BME280;65173;48.066;20.976;2023-02-01T04:26:27;100132.06;;;0.60;85.06
76124;BME280;65173;48.066;20.976;2023-02-01T04:29:30;100126.09;;;0.69;84.71
76124;BME280;65173;48.066;20.976;2023-02-01T04:32:32;100126.06;;;1.01;84.51
76124;BME280;65173;48.066;20.976;2023-02-01T04:35:35;100136.44;;;1.23;83.49
76124;BME280;65173;48.066;20.976;2023-02-01T04:38:38;100131.22;;;1.33;83.10
76124;BME280;65173;48.066;20.976;2023-02-01T04:41:41;100137.22;;;1.24;83.33
76124;BME280;65173;48.066;20.976;2023-02-01T04:44:44;100120.56;;;1.08;84.06
76124;BME280;65173;48.066;20.976;2023-02-01T04:47:46;100133.63;;;0.98;84.03
76124;BME280;65173;48.066;20.976;2023-02-01T04:50:51;100137.31;;;0.97;84.03
76124;BME280;65173;48.066;20.976;2023-02-01T04:53:54;100139.19;;;1.01;84.39
76124;BME280;65173;48.066;20.976;2023-02-01T04:56:58;100146.19;;;0.91;84.93
76124;BME280;65173;48.066;20.976;2023-02-01T05:00:01;100133.22;;;0.74;85.25
76124;BME280;65173;48.066;20.976;2023-02-01T05:03:05;100132.94;;;0.71;85.76
76124;BME280;65173;48.066;20.976;2023-02-01T05:06:08;100131.13;;;0.76;85.61
76124;BME280;65173;48.066;20.976;2023-02-01T05:09:11;100123.16;;;0.61;86.15
76124;BME280;65173;48.066;20.976;2023-02-01T05:12:14;100122.69;;;0.37;86.62
76124;BME280;65173;48.066;20.976;2023-02-01T05:15:35;100125.47;;;0.25;87.22
76124;BME280;65173;48.066;20.976;2023-02-01T05:18:37;100127.31;;;0.25;87.13
76124;BME280;65173;48.066;20.976;2023-02-01T05:21:40;100125.38;;;0.15;88.08
76124;BME280;65173;48.066;20.976;2023-02-01T05:24:43;100137.59;;;0.05;88.03
76124;BME280;65173;48.066;20.976;2023-02-01T05:27:46;100142.72;;;-0.06;88.53
76124;BME280;65173;48.066;20.976;2023-02-01T05:30:49;100119.34;;;-0.12;88.38
76124;BME280;65173;48.066;20.976;2023-02-01T05:33:52;100134.31;;;-0.08;88.80
76124;BME280;65173;48.066;20.976;2023-02-01T05:36:55;100140.59;;;-0.09;88.74
76124;BME280;65173;48.066;20.976;2023-02-01T05:39:57;100146.13;;;-0.05;88.75
76124;BME280;65173;48.066;20.976;2023-02-01T05:43:00;100143.91;;;0.09;88.71
76124;BME280;65173;48.066;20.976;2023-02-01T05:46:03;100140.50;;;0.35;87.80
76124;BME280;65173;48.066;20.976;2023-02-01T05:49:06;100136.56;;;0.32;87.07
76124;BME280;65173;48.066;20.976;2023-02-01T05:52:08;100143.28;;;0.23;87.44
76124;BME280;65173;48.066;20.976;2023-02-01T05:55:11;100140.88;;;0.17;87.51
76124;BME280;65173;48.066;20.976;2023-02-01T05:58:15;100149.53;;;0.17;87.79
76124;BME280;65173;48.066;20.976;2023-02-01T06:01:18;100155.00;;;0.16;87.82
76124;BME280;65173;48.066;20.976;2023-02-01T06:04:20;100155.25;;;0.14;87.93
76124;BME280;65173;48.066;20.976;2023-02-01T06:07:23;100165.72;;;0.14;87.91
76124;BME280;65173;48.066;20.976;2023-02-01T06:10:26;100166.22;;;0.11;87.45
76124;BME280;65173;48.066;20.976;2023-02-01T06:13:29;100163.13;;;0.19;87.86
76124;BME280;65173;48.066;20.976;2023-02-01T06:16:35;100167.78;;;0.39;87.15
76124;BME280;65173;48.066;20.976;2023-02-01T06:19:37;100177.41;;;0.28;87.26
76124;BME280;65173;48.066;20.976;2023-02-01T06:22:40;100192.16;;;0.34;87.89
76124;BME280;65173;48.066;20.976;2023-02-01T06:25:43;100208.22;;;0.43;87.60
76124;BME280;65173;48.066;20.976;2023-02-01T06:28:45;100225.59;;;0.54;86.88
76124;BME280;65173;48.066;20.976;2023-02-01T06:31:48;100226.16;;;0.56;86.35
76124;BME280;65173;48.066;20.976;2023-02-01T06:34:51;100245.75;;;0.49;85.51
76124;BME280;65173;48.066;20.976;2023-02-01T06:37:58;100248.09;;;0.23;85.90
76124;BME280;65173;48.066;20.976;2023-02-01T06:41:00;100247.06;;;0.03;86.30
76124;BME280;65173;48.066;20.976;2023-02-01T06:44:03;100248.47;;;-0.12;87.17
76124;BME280;65173;48.066;20.976;2023-02-01T06:47:06;100236.25;;;0.16;87.46
76124;BME280;65173;48.066;20.976;2023-02-01T06:50:10;100241.94;;;0.34;87.11
76124;BME280;65173;48.066;20.976;2023-02-01T06:53:13;100242.78;;;1.31;83.98
76124;BME280;65173;48.066;20.976;2023-02-01T06:56:16;100242.56;;;2.77;77.49
76124;BME280;65173;48.066;20.976;2023-02-01T06:59:18;100235.97;;;3.51;74.39
76124;BME280;65173;48.066;20.976;2023-02-01T07:02:22;100233.16;;;4.56;70.29
76124;BME280;65173;48.066;20.976;2023-02-01T07:05:24;100235.22;;;4.98;68.92
76124;BME280;65173;48.066;20.976;2023-02-01T07:08:28;100233.19;;;5.48;66.57
76124;BME280;65173;48.066;20.976;2023-02-01T07:11:31;100243.84;;;5.67;66.08
76124;BME280;65173;48.066;20.976;2023-02-01T07:14:34;100243.41;;;5.83;65.69
76124;BME280;65173;48.066;20.976;2023-02-01T07:17:37;100241.09;;;6.01;64.05
76124;BME280;65173;48.066;20.976;2023-02-01T07:20:40;100250.31;;;6.65;64.47
76124;BME280;65173;48.066;20.976;2023-02-01T07:23:43;100256.03;;;6.34;62.66
76124;BME280;65173;48.066;20.976;2023-02-01T07:26:45;100250.84;;;6.99;60.69
76124;BME280;65173;48.066;20.976;2023-02-01T07:29:50;100248.44;;;7.90;58.58
76124;BME280;65173;48.066;20.976;2023-02-01T07:32:52;100257.00;;;8.00;57.80
76124;BME280;65173;48.066;20.976;2023-02-01T07:35:56;100250.81;;;8.05;57.95
76124;BME280;65173;48.066;20.976;2023-02-01T07:38:58;100256.41;;;7.90;58.77
76124;BME280;65173;48.066;20.976;2023-02-01T07:42:01;100251.16;;;9.20;55.34
76124;BME280;65173;48.066;20.976;2023-02-01T07:45:05;100258.03;;;9.13;54.50
76124;BME280;65173;48.066;20.976;2023-02-01T07:48:23;100258.84;;;8.99;56.12
76124;BME280;65173;48.066;20.976;2023-02-01T07:51:26;100249.25;;;9.74;54.04
76124;BME280;65173;48.066;20.976;2023-02-01T07:54:29;100250.44;;;9.99;52.20
76124;BME280;65173;48.066;20.976;2023-02-01T07:57:31;100246.31;;;10.67;51.41
76124;BME280;65173;48.066;20.976;2023-02-01T08:00:34;100237.91;;;11.75;48.49
76124;BME280;65173;48.066;20.976;2023-02-01T08:03:56;100243.78;;;11.60;48.61
76124;BME280;65173;48.066;20.976;2023-02-01T08:06:59;100243.50;;;12.00;46.78
76124;BME280;65173;48.066;20.976;2023-02-01T08:10:02;100237.50;;;12.24;46.12
76124;BME280;65173;48.066;20.976;2023-02-01T08:13:05;100245.03;;;11.63;47.43
76124;BME280;65173;48.066;20.976;2023-02-01T08:16:09;100254.22;;;12.83;46.10
76124;BME280;65173;48.066;20.976;2023-02-01T08:19:12;100253.94;;;12.55;46.06
76124;BME280;65173;48.066;20.976;2023-02-01T08:22:15;100253.78;;;12.93;45.90
76124;BME280;65173;48.066;20.976;2023-02-01T08:25:17;100254.81;;;13.79;43.97
76124;BME280;65173;48.066;20.976;2023-02-01T08:28:20;100246.94;;;13.37;43.25
76124;BME280;65173;48.066;20.976;2023-02-01T08:31:24;100246.88;;;13.58;42.78
76124;BME280;65173;48.066;20.976;2023-02-01T08:34:27;100239.06;;;11.10;47.55
76124;BME280;65173;48.066;20.976;2023-02-01T08:37:31;100245.47;;;9.66;53.67
76124;BME280;65173;48.066;20.976;2023-02-01T08:40:34;100252.25;;;9.19;53.94
76124;BME280;65173;48.066;20.976;2023-02-01T08:43:37;100251.06;;;10.04;53.29
76124;BME280;65173;48.066;20.976;2023-02-01T08:46:40;100254.97;;;9.59;54.22
76124;BME280;65173;48.066;20.976;2023-02-01T08:49:42;100263.66;;;8.53;57.16
76124;BME280;65173;48.066;20.976;2023-02-01T08:52:45;100257.91;;;7.36;60.71
76124;BME280;65173;48.066;20.976;2023-02-01T08:55:48;100278.91;;;8.83;57.29
76124;BME280;65173;48.066;20.976;2023-02-01T08:58:51;100267.38;;;10.03;53.40
76124;BME280;65173;48.066;20.976;2023-02-01T09:01:54;100261.25;;;9.32;54.37
76124;BME280;65173;48.066;20.976;2023-02-01T09:04:57;100273.22;;;9.43;54.58
76124;BME280;65173;48.066;20.976;2023-02-01T09:08:01;100267.25;;;11.37;50.63
76124;BME280;65173;48.066;20.976;2023-02-01T09:11:07;100277.31;;;11.32;47.95
76124;BME280;65173;48.066;20.976;2023-02-01T09:14:10;100266.00;;;11.35;47.74
76124;BME280;65173;48.066;20.976;2023-02-01T09:17:13;100255.44;;;11.47;48.61
76124;BME280;65173;48.066;20.976;2023-02-01T09:20:15;100269.56;;;11.56;48.19
76124;BME280;65173;48.066;20.976;2023-02-01T09:23:18;100260.13;;;10.52;52.20
76124;BME280;65173;48.066;20.976;2023-02-01T09:26:22;100257.41;;;11.21;49.71
76124;BME280;65173;48.066;20.976;2023-02-01T09:29:33;100264.47;;;13.14;45.79
76124;BME280;65173;48.066;20.976;2023-02-01T09:32:36;100261.13;;;13.50;44.60
76124;BME280;65173;48.066;20.976;2023-02-01T09:35:38;100243.69;;;13.44;43.96
76124;BME280;65173;48.066;20.976;2023-02-01T09:38:41;100241.81;;;14.30;43.43
76124;BME280;65173;48.066;20.976;2023-02-01T09:48:31;100231.56;;;16.45;38.98
76124;BME280;65173;48.066;20.976;2023-02-01T09:51:37;100225.88;;;14.89;37.42
76124;BME280;65173;48.066;20.976;2023-02-01T09:54:44;100229.34;;;14.62;39.32
76124;BME280;65173;48.066;20.976;2023-02-01T09:57:55;100232.47;;;15.35;38.47
76124;BME280;65173;48.066;20.976;2023-02-01T10:01:01;100236.53;;;14.33;41.25
76124;BME280;65173;48.066;20.976;2023-02-01T10:04:08;100234.09;;;14.80;41.40
76124;BME280;65173;48.066;20.976;2023-02-01T10:07:24;100228.38;;;15.41;38.76
76124;BME280;65173;48.066;20.976;2023-02-01T10:10:38;100221.91;;;11.29;42.24
76124;BME280;65173;48.066;20.976;2023-02-01T10:21:04;100192.38;;;9.61;44.33
76124;BME280;65173;48.066;20.976;2023-02-01T10:24:20;100203.81;;;10.27;45.54
76124;BME280;65173;48.066;20.976;2023-02-01T10:27:34;100204.63;;;12.85;40.50
76124;BME280;65173;48.066;20.976;2023-02-01T10:30:43;100188.44;;;10.85;40.52
76124;BME280;65173;48.066;20.976;2023-02-01T10:33:49;100188.81;;;9.74;42.49
76124;BME280;65173;48.066;20.976;2023-02-01T10:37:15;100189.53;;;9.58;44.96
76124;BME280;65173;48.066;20.976;2023-02-01T10:40:23;100189.59;;;9.35;44.93
76124;BME280;65173;48.066;20.976;2023-02-01T10:43:27;100194.09;;;8.95;45.95
76124;BME280;65173;48.066;20.976;2023-02-01T10:46:31;100177.09;;;8.74;46.72
76124;BME280;65173;48.066;20.976;2023-02-01T10:50:02;100179.28;;;8.36;47.15
76124;BME280;65173;48.066;20.976;2023-02-01T10:56:27;100160.53;;;8.55;49.03
76124;BME280;65173;48.066;20.976;2023-02-01T10:59:30;100151.53;;;8.28;46.76
76124;BME280;65173;48.066;20.976;2023-02-01T11:02:35;100153.84;;;8.08;49.58
76124;BME280;65173;48.066;20.976;2023-02-01T11:05:46;100143.72;;;8.10;48.70
76124;BME280;65173;48.066;20.976;2023-02-01T11:08:51;100134.34;;;8.26;48.45
76124;BME280;65173;48.066;20.976;2023-02-01T11:11:57;100139.56;;;7.81;48.55
76124;BME280;65173;48.066;20.976;2023-02-01T11:15:20;100140.38;;;7.54;48.08
76124;BME280;65173;48.066;20.976;2023-02-01T11:18:27;100132.91;;;7.84;48.33
76124;BME280;65173;48.066;20.976;2023-02-01T11:21:30;100126.84;;;8.06;49.68
76124;BME280;65173;48.066;20.976;2023-02-01T11:24:37;100124.19;;;8.28;48.60
76124;BME280;65173;48.066;20.976;2023-02-01T11:27:41;100123.41;;;8.41;48.56
76124;BME280;65173;48.066;20.976;2023-02-01T11:30:56;100122.19;;;8.47;48.38
76124;BME280;65173;48.066;20.976;2023-02-01T11:34:31;100113.91;;;8.49;47.85
76124;BME280;65173;48.066;20.976;2023-02-01T11:37:40;100098.59;;;8.10;47.99
76124;BME280;65173;48.066;20.976;2023-02-01T11:40:43;100102.19;;;8.05;47.92
76124;BME280;65173;48.066;20.976;2023-02-01T11:43:53;100094.09;;;8.10;47.81
76124;BME280;65173;48.066;20.976;2023-02-01T11:47:23;100086.31;;;8.14;47.73
76124;BME280;65173;48.066;20.976;2023-02-01T11:50:44;100088.44;;;7.89;49.15
76124;BME280;65173;48.066;20.976;2023-02-01T11:57:44;100075.09;;;7.45;54.30
76124;BME280;65173;48.066;20.976;2023-02-01T12:01:19;100071.75;;;7.25;54.30
76124;BME280;65173;48.066;20.976;2023-02-01T12:04:56;100065.88;;;7.15;55.90
76124;BME280;65173;48.066;20.976;2023-02-01T12:21:26;100041.63;;;7.08;50.51
76124;BME280;65173;48.066;20.976;2023-02-01T12:44:42;100058.97;;;6.86;51.39
76124;BME280;65173;48.066;20.976;2023-02-01T12:51:24;100057.91;;;6.87;50.28
76124;BME280;65173;48.066;20.976;2023-02-01T12:54:49;100066.94;;;6.86;50.64
76124;BME280;65173;48.066;20.976;2023-02-01T12:58:01;100060.63;;;6.82;51.01
76124;BME280;65173;48.066;20.976;2023-02-01T13:08:12;100062.72;;;6.99;50.16
76124;BME280;65173;48.066;20.976;2023-02-01T13:11:19;100064.91;;;6.97;51.34
76124;BME280;65173;48.066;20.976;2023-02-01T13:17:29;100056.75;;;6.93;50.95
76124;BME280;65173;48.066;20.976;2023-02-01T13:20:39;100042.91;;;6.96;50.65
76124;BME280;65173;48.066;20.976;2023-02-01T13:23:47;100050.75;;;7.02;51.35
76124;BME280;65173;48.066;20.976;2023-02-01T13:26:53;100057.81;;;6.92;52.52
76124;BME280;65173;48.066;20.976;2023-02-01T13:30:00;100047.09;;;6.84;52.94
76124;BME280;65173;48.066;20.976;2023-02-01T13:43:21;100034.34;;;6.58;53.21
76124;BME280;65173;48.066;20.976;2023-02-01T13:46:26;100023.47;;;6.60;52.20
76124;BME280;65173;48.066;20.976;2023-02-01T13:49:38;100025.81;;;6.61;53.11
76124;BME280;65173;48.066;20.976;2023-02-01T13:52:44;100019.13;;;6.50;53.14
76124;BME280;65173;48.066;20.976;2023-02-01T13:56:18;100013.44;;;6.43;54.14
76124;BME280;65173;48.066;20.976;2023-02-01T14:12:45;100014.16;;;6.30;53.17
76124;BME280;65173;48.066;20.976;2023-02-01T14:16:13;100023.69;;;6.31;53.77
76124;BME280;65173;48.066;20.976;2023-02-01T14:19:33;100019.56;;;6.25;54.60
76124;BME280;65173;48.066;20.976;2023-02-01T14:22:36;100028.75;;;6.27;54.99
76124;BME280;65173;48.066;20.976;2023-02-01T14:25:39;100033.66;;;6.20;55.80
76124;BME280;65173;48.066;20.976;2023-02-01T14:28:50;100032.94;;;6.15;54.90
76124;BME280;65173;48.066;20.976;2023-02-01T14:35:08;100031.94;;;6.11;55.18
76124;BME280;65173;48.066;20.976;2023-02-01T14:38:20;100024.41;;;6.04;55.57
76124;BME280;65173;48.066;20.976;2023-02-01T14:41:33;100034.25;;;6.31;55.46
76124;BME280;65173;48.066;20.976;2023-02-01T14:44:36;100031.34;;;6.33;55.24
76124;BME280;65173;48.066;20.976;2023-02-01T14:47:39;100030.47;;;6.37;55.65
76124;BME280;65173;48.066;20.976;2023-02-01T14:50:49;100037.38;;;6.19;56.01
76124;BME280;65173;48.066;20.976;2023-02-01T14:53:52;100023.38;;;6.00;57.11
76124;BME280;65173;48.066;20.976;2023-02-01T14:56:54;100024.63;;;5.89;57.92
76124;BME280;65173;48.066;20.976;2023-02-01T15:00:10;100031.31;;;5.81;58.15
76124;BME280;65173;48.066;20.976;2023-02-01T15:03:28;100027.59;;;5.64;59.06
76124;BME280;65173;48.066;20.976;2023-02-01T15:09:48;100033.50;;;5.55;59.98
76124;BME280;65173;48.066;20.976;2023-02-01T15:12:51;100042.88;;;5.48;59.92
76124;BME280;65173;48.066;20.976;2023-02-01T15:16:08;100032.38;;;5.43;61.25
76124;BME280;65173;48.066;20.976;2023-02-01T15:19:13;100039.66;;;5.32;61.68
76124;BME280;65173;48.066;20.976;2023-02-01T15:22:18;100048.97;;;5.24;63.57
76124;BME280;65173;48.066;20.976;2023-02-01T15:25:23;100052.72;;;5.00;65.16
76124;BME280;65173;48.066;20.976;2023-02-01T15:28:27;100047.94;;;4.78;66.80
76124;BME280;65173;48.066;20.976;2023-02-01T15:31:38;100046.94;;;4.45;68.06
76124;BME280;65173;48.066;20.976;2023-02-01T15:34:49;100036.31;;;4.21;69.38
76124;BME280;65173;48.066;20.976;2023-02-01T15:37:52;100035.75;;;3.90;71.21
76124;BME280;65173;48.066;20.976;2023-02-01T15:44:31;100040.41;;;4.03;70.54
76124;BME280;65173;48.066;20.976;2023-02-01T15:47:35;100038.13;;;3.92;71.03
76124;BME280;65173;48.066;20.976;2023-02-01T15:50:39;100043.19;;;3.78;71.65
76124;BME280;65173;48.066;20.976;2023-02-01T15:53:45;100042.44;;;3.72;71.75
76124;BME280;65173;48.066;20.976;2023-02-01T15:56:51;100048.81;;;3.66;72.55
76124;BME280;65173;48.066;20.976;2023-02-01T15:59:55;100043.56;;;3.61;72.72
76124;BME280;65173;48.066;20.976;2023-02-01T16:03:01;100047.13;;;3.36;73.66
76124;BME280;65173;48.066;20.976;2023-02-01T16:09:12;100046.69;;;3.09;75.17
76124;BME280;65173;48.066;20.976;2023-02-01T16:15:33;100054.09;;;2.97;76.03
76124;BME280;65173;48.066;20.976;2023-02-01T16:18:36;100053.09;;;2.77;76.53
76124;BME280;65173;48.066;20.976;2023-02-01T16:21:38;100051.78;;;2.70;77.02
76124;BME280;65173;48.066;20.976;2023-02-01T16:24:41;100036.84;;;2.50;77.53
76124;BME280;65173;48.066;20.976;2023-02-01T16:27:43;100045.78;;;2.39;78.28
76124;BME280;65173;48.066;20.976;2023-02-01T16:30:48;100045.00;;;2.38;78.32
76124;BME280;65173;48.066;20.976;2023-02-01T16:33:51;100052.38;;;2.11;78.79
76124;BME280;65173;48.066;20.976;2023-02-01T16:36:54;100043.16;;;2.19;78.84
76124;BME280;65173;48.066;20.976;2023-02-01T16:39:59;100055.28;;;2.15;78.82
76124;BME280;65173;48.066;20.976;2023-02-01T16:43:02;100060.50;;;2.04;79.28
76124;BME280;65173;48.066;20.976;2023-02-01T16:46:12;100056.28;;;1.93;79.70
76124;BME280;65173;48.066;20.976;2023-02-01T16:49:23;100066.75;;;1.73;81.00
76124;BME280;65173;48.066;20.976;2023-02-01T16:52:27;100065.66;;;1.64;82.14
76124;BME280;65173;48.066;20.976;2023-02-01T16:55:29;100061.75;;;1.66;81.52
76124;BME280;65173;48.066;20.976;2023-02-01T16:58:32;100055.16;;;1.64;82.07
76124;BME280;65173;48.066;20.976;2023-02-01T17:01:35;100056.75;;;1.60;82.27
76124;BME280;65173;48.066;20.976;2023-02-01T17:04:39;100060.16;;;1.60;82.37
76124;BME280;65173;48.066;20.976;2023-02-01T17:07:42;100063.56;;;1.56;82.08
76124;BME280;65173;48.066;20.976;2023-02-01T17:10:45;100056.16;;;1.48;81.99
76124;BME280;65173;48.066;20.976;2023-02-01T17:13:48;100032.59;;;1.58;81.24
76124;BME280;65173;48.066;20.976;2023-02-01T17:16:51;100039.41;;;1.59;81.14
76124;BME280;65173;48.066;20.976;2023-02-01T17:19:54;100039.66;;;1.52;81.04
76124;BME280;65173;48.066;20.976;2023-02-01T17:22:58;100037.25;;;1.46;81.25
76124;BME280;65173;48.066;20.976;2023-02-01T17:26:02;100044.38;;;1.50;80.93
76124;BME280;65173;48.066;20.976;2023-02-01T17:29:05;100042.03;;;1.54;80.69
76124;BME280;65173;48.066;20.976;2023-02-01T17:32:16;100049.56;;;1.35;81.12
76124;BME280;65173;48.066;20.976;2023-02-01T17:35:24;100050.09;;;1.37;81.27
76124;BME280;65173;48.066;20.976;2023-02-01T17:38:28;100054.06;;;1.39;81.61
76124;BME280;65173;48.066;20.976;2023-02-01T17:41:30;100048.03;;;1.39;81.99
76124;BME280;65173;48.066;20.976;2023-02-01T17:44:33;100062.22;;;1.48;82.13
76124;BME280;65173;48.066;20.976;2023-02-01T17:47:36;100054.06;;;1.45;82.61
76124;BME280;65173;48.066;20.976;2023-02-01T17:50:40;100063.03;;;1.54;82.43
76124;BME280;65173;48.066;20.976;2023-02-01T17:53:44;100063.56;;;1.56;82.79
76124;BME280;65173;48.066;20.976;2023-02-01T17:56:47;100065.94;;;1.57;82.92
76124;BME280;65173;48.066;20.976;2023-02-01T17:59:50;100064.34;;;1.51;83.47
76124;BME280;65173;48.066;20.976;2023-02-01T18:02:53;100071.72;;;1.59;83.36
76124;BME280;65173;48.066;20.976;2023-02-01T18:05:56;100069.88;;;1.60;83.36
76124;BME280;65173;48.066;20.976;2023-02-01T18:09:00;100068.34;;;1.74;82.84
76124;BME280;65173;48.066;20.976;2023-02-01T18:12:04;100075.16;;;1.80;82.82
76124;BME280;65173;48.066;20.976;2023-02-01T18:15:21;100075.69;;;1.82;83.28
76124;BME280;65173;48.066;20.976;2023-02-01T18:18:25;100075.69;;;1.82;83.16
76124;BME280;65173;48.066;20.976;2023-02-01T18:21:41;100074.38;;;1.80;83.59
76124;BME280;65173;48.066;20.976;2023-02-01T18:24:44;100073.88;;;1.78;83.59
76124;BME280;65173;48.066;20.976;2023-02-01T18:27:49;100069.38;;;1.73;83.75
76124;BME280;65173;48.066;20.976;2023-02-01T18:30:53;100071.50;;;1.76;84.11
76124;BME280;65173;48.066;20.976;2023-02-01T18:33:58;100063.63;;;1.76;83.97